createdAt,value
2023-01-08T00:00:52.649Z,26.47
2023-01-08T00:01:52.499Z,26.50
2023-01-08T00:02:52.506Z,26.50
2023-01-08T00:03:52.581Z,26.47
2023-01-08T00:04:52.387Z,26.47
2023-01-08T00:05:52.351Z,26.46
2023-01-08T00:06:52.333Z,26.47
2023-01-08T00:07:52.257Z,26.48
2023-01-08T00:08:52.247Z,26.45
2023-01-08T00:09:52.192Z,26.51
2023-01-08T00:10:52.148Z,26.46
2023-01-08T00:11:52.118Z,26.45
2023-01-08T00:12:52.055Z,26.47
2023-01-08T00:13:52.088Z,26.53
2023-01-08T00:14:51.993Z,26.46
2023-01-08T00:15:51.922Z,26.51
2023-01-08T00:16:52.012Z,26.45
2023-01-08T00:17:51.874Z,26.45
2023-01-08T00:18:51.838Z,26.47
2023-01-08T00:19:51.786Z,26.50
2023-01-08T00:20:51.757Z,26.50
2023-01-08T00:21:51.723Z,26.50
2023-01-08T00:22:51.668Z,26.51
2023-01-08T00:23:51.634Z,26.54
2023-01-08T00:24:51.593Z,26.47
2023-01-08T00:25:51.564Z,26.51
2023-01-08T00:26:51.521Z,26.50
2023-01-08T00:27:51.499Z,26.51
2023-01-08T00:28:51.465Z,26.48
2023-01-08T00:29:51.527Z,26.51
2023-01-08T00:30:51.469Z,26.50
2023-01-08T00:31:51.348Z,26.50
2023-01-08T00:32:51.333Z,26.51
2023-01-08T00:33:51.265Z,26.54
2023-01-08T00:34:51.220Z,26.50
2023-01-08T00:35:51.181Z,26.48
2023-01-08T00:36:51.140Z,26.47
2023-01-08T00:37:51.134Z,26.53
2023-01-08T00:38:51.074Z,26.57
2023-01-08T00:39:51.039Z,26.50
2023-01-08T00:40:50.996Z,26.48
2023-01-08T00:41:50.947Z,26.52
2023-01-08T00:42:50.967Z,26.50
2023-01-08T00:43:50.894Z,26.46
2023-01-08T00:44:50.847Z,26.47
2023-01-08T00:45:50.949Z,26.50
2023-01-08T00:46:50.774Z,26.48
2023-01-08T00:47:50.747Z,26.53
2023-01-08T00:48:50.684Z,26.47
2023-01-08T00:49:50.673Z,26.53
2023-01-08T00:50:50.635Z,26.50
2023-01-08T00:51:50.582Z,26.48
2023-01-08T00:52:50.551Z,26.51
2023-01-08T00:53:50.514Z,26.48
2023-01-08T00:54:50.482Z,26.48
2023-01-08T00:55:50.445Z,26.51
2023-01-08T00:56:50.391Z,26.51
2023-01-08T00:57:50.371Z,26.52
2023-01-08T00:58:50.311Z,26.45
2023-01-08T00:59:50.274Z,26.48
2023-01-08T01:00:50.255Z,26.48
2023-01-08T01:01:50.491Z,26.45
2023-01-08T01:02:50.162Z,26.49
2023-01-08T01:03:50.210Z,26.48
2023-01-08T01:04:50.066Z,26.45
2023-01-08T01:05:50.051Z,26.46
2023-01-08T01:06:49.985Z,26.45
2023-01-08T01:07:49.950Z,26.45
2023-01-08T01:08:49.910Z,26.45
2023-01-08T01:09:49.864Z,26.39
2023-01-08T01:10:49.832Z,26.38
2023-01-08T01:11:49.804Z,26.48
2023-01-08T01:12:49.776Z,26.39
2023-01-08T01:13:49.697Z,26.42
2023-01-08T01:14:49.665Z,26.46
2023-01-08T01:15:49.630Z,26.45
2023-01-08T01:16:49.630Z,26.42
2023-01-08T01:17:49.698Z,26.44
2023-01-08T01:18:49.557Z,26.44
2023-01-08T01:19:49.484Z,26.44
2023-01-08T01:20:49.428Z,26.38
2023-01-08T01:21:49.427Z,26.44
2023-01-08T01:22:49.365Z,26.44
2023-01-08T01:23:49.348Z,26.44
2023-01-08T01:24:49.293Z,26.44
2023-01-08T01:25:49.244Z,26.36
2023-01-08T01:26:49.210Z,26.42
2023-01-08T01:27:49.173Z,26.42
2023-01-08T01:28:49.183Z,26.42
2023-01-08T01:29:49.115Z,26.41
2023-01-08T01:30:49.115Z,26.39
2023-01-08T01:31:49.029Z,26.44
2023-01-08T01:32:48.996Z,26.39
2023-01-08T01:33:49.055Z,26.45
2023-01-08T01:34:48.910Z,26.46
2023-01-08T01:35:48.877Z,26.42
2023-01-08T01:36:48.853Z,26.45
2023-01-08T01:37:48.820Z,26.41
2023-01-08T01:38:48.777Z,26.41
2023-01-08T01:39:48.741Z,26.39
2023-01-08T01:40:48.700Z,26.38
2023-01-08T01:41:48.645Z,26.39
2023-01-08T01:42:48.642Z,26.36
2023-01-08T01:43:48.580Z,26.38
2023-01-08T01:44:48.544Z,26.41
2023-01-08T01:45:48.544Z,26.39
2023-01-08T01:46:48.474Z,26.42
2023-01-08T01:47:48.423Z,26.38
2023-01-08T01:48:48.403Z,26.39
2023-01-08T01:49:48.464Z,26.40
2023-01-08T01:50:48.339Z,26.36
2023-01-08T01:51:48.293Z,26.38
2023-01-08T01:52:48.253Z,26.38
2023-01-08T01:53:48.233Z,26.39
2023-01-08T01:54:48.178Z,26.39
2023-01-08T01:55:48.153Z,26.39
2023-01-08T01:56:48.106Z,26.39
2023-01-08T01:57:48.068Z,26.38
2023-01-08T01:58:48.051Z,26.38
2023-01-08T01:59:48.022Z,26.36
2023-01-08T02:00:47.975Z,26.39
2023-01-08T02:01:48.061Z,26.39
2023-01-08T02:02:47.893Z,26.44
2023-01-08T02:03:47.923Z,26.36
2023-01-08T02:04:47.814Z,26.38
2023-01-08T02:05:47.855Z,26.38
2023-01-08T02:06:47.736Z,26.33
2023-01-08T02:07:47.671Z,26.38
2023-01-08T02:08:47.661Z,26.38
2023-01-08T02:09:47.622Z,26.40
2023-01-08T02:10:47.569Z,26.33
2023-01-08T02:11:47.531Z,26.36
2023-01-08T02:12:47.487Z,26.39
2023-01-08T02:13:47.453Z,26.37
2023-01-08T02:14:47.417Z,26.38
2023-01-08T02:15:47.367Z,26.36
2023-01-08T02:16:47.397Z,26.40
2023-01-08T02:17:47.311Z,26.33
2023-01-08T02:18:47.278Z,26.39
2023-01-08T02:19:47.237Z,26.36
2023-01-08T02:20:47.183Z,26.36
2023-01-08T02:21:47.239Z,26.33
2023-01-08T02:22:47.124Z,26.37
2023-01-08T02:23:47.073Z,26.35
2023-01-08T02:24:47.032Z,26.33
2023-01-08T02:25:46.998Z,26.36
2023-01-08T02:26:46.967Z,26.32
2023-01-08T02:27:46.914Z,26.36
2023-01-08T02:28:46.885Z,26.33
2023-01-08T02:29:46.846Z,26.35
2023-01-08T02:30:46.860Z,26.36
2023-01-08T02:31:46.747Z,26.33
2023-01-08T02:32:46.724Z,26.39
2023-01-08T02:33:46.673Z,26.36
2023-01-08T02:34:46.700Z,26.36
2023-01-08T02:35:46.597Z,26.35
2023-01-08T02:36:46.561Z,26.33
2023-01-08T02:37:46.629Z,26.30
2023-01-08T02:38:46.482Z,26.30
2023-01-08T02:39:46.437Z,26.31
2023-01-08T02:40:46.398Z,26.35
2023-01-08T02:41:46.360Z,26.31
2023-01-08T02:42:46.325Z,26.31
2023-01-08T02:43:46.299Z,26.33
2023-01-08T02:44:46.267Z,26.30
2023-01-08T02:45:46.227Z,26.34
2023-01-08T02:46:46.176Z,26.29
2023-01-08T02:47:46.129Z,26.31
2023-01-08T02:48:46.092Z,26.28
2023-01-08T02:49:46.056Z,26.30
2023-01-08T02:50:46.014Z,26.30
2023-01-08T02:51:45.989Z,26.25
2023-01-08T02:52:45.959Z,26.30
2023-01-08T02:53:45.986Z,26.29
2023-01-08T02:54:45.873Z,26.30
2023-01-08T02:55:45.836Z,26.29
2023-01-08T02:56:45.795Z,26.29
2023-01-08T02:57:45.755Z,26.30
2023-01-08T02:58:45.722Z,26.29
2023-01-08T02:59:45.710Z,26.23
2023-01-08T03:00:45.649Z,26.25
2023-01-08T03:01:45.836Z,26.30
2023-01-08T03:02:45.555Z,26.25
2023-01-08T03:03:45.596Z,26.24
2023-01-08T03:04:45.514Z,26.25
2023-01-08T03:05:45.480Z,26.30
2023-01-08T03:06:45.424Z,26.21
2023-01-08T03:07:45.372Z,26.25
2023-01-08T03:08:45.341Z,26.23
2023-01-08T03:09:45.438Z,26.23
2023-01-08T03:10:45.272Z,26.24
2023-01-08T03:11:45.222Z,26.23
2023-01-08T03:12:45.184Z,26.21
2023-01-08T03:13:45.154Z,26.25
2023-01-08T03:14:45.109Z,26.23
2023-01-08T03:15:45.072Z,26.21
2023-01-08T03:16:45.084Z,26.23
2023-01-08T03:17:45.000Z,26.24
2023-01-08T03:18:44.949Z,26.23
2023-01-08T03:19:44.893Z,26.24
2023-01-08T03:20:44.864Z,26.24
2023-01-08T03:21:44.799Z,26.25
2023-01-08T03:22:44.762Z,26.17
2023-01-08T03:23:44.714Z,26.23
2023-01-08T03:24:44.658Z,26.25
2023-01-08T03:25:44.705Z,26.25
2023-01-08T03:26:44.567Z,26.24
2023-01-08T03:27:44.535Z,26.23
2023-01-08T03:28:44.504Z,26.24
2023-01-08T03:29:44.453Z,26.21
2023-01-08T03:30:44.434Z,26.18
2023-01-08T03:31:44.362Z,26.23
2023-01-08T03:32:44.320Z,26.23
2023-01-08T03:33:44.262Z,26.23
2023-01-08T03:34:44.229Z,26.23
2023-01-08T03:35:44.202Z,26.21
2023-01-08T03:36:44.161Z,26.21
2023-01-08T03:37:44.129Z,26.25
2023-01-08T03:38:44.091Z,26.18
2023-01-08T03:39:44.044Z,26.20
2023-01-08T03:40:44.016Z,26.19
2023-01-08T03:41:44.057Z,26.20
2023-01-08T03:42:43.928Z,26.21
2023-01-08T03:43:43.898Z,26.23
2023-01-08T03:44:43.874Z,26.20
2023-01-08T03:45:43.874Z,26.22
2023-01-08T03:46:43.803Z,26.20
2023-01-08T03:47:43.763Z,26.18
2023-01-08T03:48:43.716Z,26.18
2023-01-08T03:49:43.688Z,26.24
2023-01-08T03:50:43.677Z,26.23
2023-01-08T03:51:43.597Z,26.21
2023-01-08T03:52:43.559Z,26.23
2023-01-08T03:53:43.525Z,26.23
2023-01-08T03:54:43.481Z,26.22
2023-01-08T03:55:43.461Z,26.23
2023-01-08T03:56:43.447Z,26.19
2023-01-08T03:57:43.467Z,26.21
2023-01-08T03:58:43.361Z,26.17
2023-01-08T03:59:43.310Z,26.21
2023-01-08T04:00:43.283Z,26.18
2023-01-08T04:01:43.380Z,26.22
2023-01-08T04:02:43.278Z,26.24
2023-01-08T04:03:43.160Z,26.21
2023-01-08T04:04:43.184Z,26.20
2023-01-08T04:05:43.097Z,26.19
2023-01-08T04:06:43.054Z,26.21
2023-01-08T04:07:43.021Z,26.22
2023-01-08T04:08:43.026Z,26.24
2023-01-08T04:09:42.960Z,26.22
2023-01-08T04:10:42.917Z,26.22
2023-01-08T04:11:42.881Z,26.26
2023-01-08T04:12:42.833Z,26.24
2023-01-08T04:13:42.893Z,26.24
2023-01-08T04:14:42.762Z,26.22
2023-01-08T04:15:42.770Z,26.25
2023-01-08T04:16:42.727Z,26.24
2023-01-08T04:17:42.650Z,26.22
2023-01-08T04:18:42.610Z,26.22
2023-01-08T04:19:42.573Z,26.29
2023-01-08T04:20:42.541Z,26.25
2023-01-08T04:21:42.535Z,26.24
2023-01-08T04:22:42.488Z,26.21
2023-01-08T04:23:42.448Z,26.22
2023-01-08T04:24:42.409Z,26.28
2023-01-08T04:25:42.369Z,26.25
2023-01-08T04:26:42.348Z,26.25
2023-01-08T04:27:42.296Z,26.25
2023-01-08T04:28:42.280Z,26.24
2023-01-08T04:29:42.239Z,26.25
2023-01-08T04:30:42.265Z,26.24
2023-01-08T04:31:42.170Z,26.22
2023-01-08T04:32:42.118Z,26.25
2023-01-08T04:33:42.093Z,26.24
2023-01-08T04:34:42.036Z,26.24
2023-01-08T04:35:42.002Z,26.26
2023-01-08T04:36:41.977Z,26.25
2023-01-08T04:37:41.955Z,26.22
2023-01-08T04:38:41.883Z,26.24
2023-01-08T04:39:41.830Z,26.25
2023-01-08T04:40:41.800Z,26.21
2023-01-08T04:41:41.814Z,26.25
2023-01-08T04:42:41.731Z,26.22
2023-01-08T04:43:41.708Z,26.24
2023-01-08T04:44:41.660Z,26.26
2023-01-08T04:45:41.708Z,26.22
2023-01-08T04:46:41.631Z,26.22
2023-01-08T04:47:41.560Z,26.19
2023-01-08T04:48:41.524Z,26.22
2023-01-08T04:49:41.491Z,26.24
2023-01-08T04:50:41.426Z,26.27
2023-01-08T04:51:41.406Z,26.24
2023-01-08T04:52:41.365Z,26.25
2023-01-08T04:53:41.350Z,26.25
2023-01-08T04:54:41.296Z,26.22
2023-01-08T04:55:41.264Z,26.28
2023-01-08T04:56:41.222Z,26.24
2023-01-08T04:57:41.202Z,26.22
2023-01-08T04:58:41.157Z,26.28
2023-01-08T04:59:41.124Z,26.22
2023-01-08T05:00:41.088Z,26.25
2023-01-08T05:01:41.131Z,26.24
2023-01-08T05:02:41.192Z,26.27
2023-01-08T05:03:40.986Z,26.22
2023-01-08T05:04:40.949Z,26.21
2023-01-08T05:05:40.922Z,26.29
2023-01-08T05:06:40.875Z,26.19
2023-01-08T05:07:40.853Z,26.24
2023-01-08T05:08:40.819Z,26.21
2023-01-08T05:09:40.787Z,26.26
2023-01-08T05:10:40.744Z,26.22
2023-01-08T05:11:40.719Z,26.24
2023-01-08T05:12:40.678Z,26.29
2023-01-08T05:13:40.666Z,26.25
2023-01-08T05:14:40.609Z,26.25
2023-01-08T05:15:40.586Z,26.27
2023-01-08T05:16:40.526Z,26.28
2023-01-08T05:17:40.608Z,26.24
2023-01-08T05:18:40.464Z,26.26
2023-01-08T05:19:40.444Z,26.26
2023-01-08T05:20:40.375Z,26.32
2023-01-08T05:21:40.358Z,26.31
2023-01-08T05:22:40.328Z,26.28
2023-01-08T05:23:40.304Z,26.26
2023-01-08T05:24:40.262Z,26.29
2023-01-08T05:25:40.227Z,26.28
2023-01-08T05:26:40.186Z,26.34
2023-01-08T05:27:40.161Z,26.28
2023-01-08T05:28:40.120Z,26.28
2023-01-08T05:29:40.099Z,26.25
2023-01-08T05:30:40.093Z,26.30
2023-01-08T05:31:40.035Z,26.30
2023-01-08T05:32:40.008Z,26.25
2023-01-08T05:33:40.077Z,26.26
2023-01-08T05:34:39.926Z,26.32
2023-01-08T05:35:39.886Z,26.25
2023-01-08T05:36:39.844Z,26.28
2023-01-08T05:37:39.830Z,26.29
2023-01-08T05:38:39.814Z,26.25
2023-01-08T05:39:39.758Z,26.28
2023-01-08T05:40:39.718Z,26.29
2023-01-08T05:41:39.689Z,26.28
2023-01-08T05:42:39.643Z,26.28
2023-01-08T05:43:39.631Z,26.28
2023-01-08T05:44:39.587Z,26.25
2023-01-08T05:45:39.535Z,26.30
2023-01-08T05:46:39.519Z,26.32
2023-01-08T05:47:39.464Z,26.26
2023-01-08T05:48:39.444Z,26.29
2023-01-08T05:49:39.461Z,26.30
2023-01-08T05:50:39.341Z,26.28
2023-01-08T05:51:39.310Z,26.28
2023-01-08T05:52:39.277Z,26.29
2023-01-08T05:53:39.241Z,26.34
2023-01-08T05:54:39.198Z,26.29
2023-01-08T05:55:39.171Z,26.32
2023-01-08T05:56:39.131Z,26.30
2023-01-08T05:57:39.095Z,26.32
2023-01-08T05:58:40.036Z,26.34
2023-01-08T05:59:39.012Z,26.35
2023-01-08T06:00:39.004Z,26.32
2023-01-08T06:01:38.981Z,26.30
2023-01-08T06:02:38.937Z,26.34
2023-01-08T06:03:38.874Z,26.34
2023-01-08T06:04:38.905Z,26.38
2023-01-08T06:05:38.877Z,26.35
2023-01-08T06:06:38.754Z,26.34
2023-01-08T06:07:38.733Z,26.30
2023-01-08T06:08:38.697Z,26.32
2023-01-08T06:09:38.645Z,26.35
2023-01-08T06:10:38.606Z,26.32
2023-01-08T06:11:38.572Z,26.34
2023-01-08T06:12:38.514Z,26.29
2023-01-08T06:13:38.479Z,26.32
2023-01-08T06:14:38.444Z,26.33
2023-01-08T06:15:38.413Z,26.34
2023-01-08T06:16:38.355Z,26.36
2023-01-08T06:17:38.318Z,26.30
2023-01-08T06:18:38.271Z,26.36
2023-01-08T06:19:38.219Z,26.34
2023-01-08T06:20:38.175Z,26.36
2023-01-08T06:21:38.223Z,26.34
2023-01-08T06:22:38.107Z,26.36
2023-01-08T06:23:38.077Z,26.35
2023-01-08T06:24:38.014Z,26.32
2023-01-08T06:25:37.975Z,26.35
2023-01-08T06:26:37.936Z,26.38
2023-01-08T06:27:40.435Z,26.36
2023-01-08T06:28:38.105Z,26.33
2023-01-08T06:29:38.042Z,26.33
2023-01-08T06:30:37.991Z,26.36
2023-01-08T06:31:38.013Z,26.34
2023-01-08T06:32:37.900Z,26.35
2023-01-08T06:33:37.848Z,26.35
2023-01-08T06:34:37.817Z,26.35
2023-01-08T06:35:37.825Z,26.34
2023-01-08T06:36:37.843Z,26.33
2023-01-08T06:37:37.924Z,26.35
2023-01-08T06:38:37.858Z,26.33
2023-01-08T06:39:37.903Z,26.35
2023-01-08T06:40:37.902Z,26.36
2023-01-08T06:41:37.900Z,26.39
2023-01-08T06:42:37.929Z,26.42
2023-01-08T06:43:37.942Z,26.38
2023-01-08T06:44:37.962Z,26.36
2023-01-08T06:45:37.978Z,26.32
2023-01-08T06:46:38.020Z,26.33
2023-01-08T06:47:38.007Z,26.36
2023-01-08T06:48:38.048Z,26.33
2023-01-08T06:49:38.037Z,26.36
2023-01-08T06:50:38.057Z,26.38
2023-01-08T06:51:38.062Z,26.38
2023-01-08T06:52:38.073Z,26.36
2023-01-08T06:53:38.193Z,26.29
2023-01-08T06:54:38.130Z,26.34
2023-01-08T06:55:38.165Z,26.36
2023-01-08T06:56:52.591Z,26.36
2023-01-08T06:57:39.132Z,26.36
2023-01-08T06:58:38.074Z,26.33
2023-01-08T06:59:38.047Z,26.35
2023-01-08T07:00:38.029Z,26.34
2023-01-08T07:01:38.025Z,26.33
2023-01-08T07:02:38.129Z,26.32
2023-01-08T07:03:37.972Z,26.36
2023-01-08T07:04:37.885Z,26.33
2023-01-08T07:05:37.845Z,26.34
2023-01-08T07:06:37.781Z,26.34
2023-01-08T07:07:37.717Z,26.34
2023-01-08T07:08:37.693Z,26.32
2023-01-08T07:09:37.737Z,26.35
2023-01-08T07:10:37.617Z,26.34
2023-01-08T07:11:37.564Z,26.35
2023-01-08T07:12:37.559Z,26.34
2023-01-08T07:13:37.476Z,26.23
2023-01-08T07:14:37.458Z,26.29
2023-01-08T07:15:37.500Z,26.30
2023-01-08T07:16:37.356Z,26.35
2023-01-08T07:17:37.310Z,26.32
2023-01-08T07:18:37.292Z,26.33
2023-01-08T07:19:37.279Z,26.33
2023-01-08T07:20:37.207Z,26.34
2023-01-08T07:21:37.175Z,26.33
2023-01-08T07:22:37.159Z,26.30
2023-01-08T07:23:37.119Z,26.30
2023-01-08T07:24:37.050Z,26.33
2023-01-08T07:25:37.108Z,26.30
2023-01-08T07:26:36.987Z,26.32
2023-01-08T07:27:36.965Z,26.38
2023-01-08T07:28:36.922Z,26.35
2023-01-08T07:29:36.917Z,26.29
2023-01-08T07:30:36.867Z,26.30
2023-01-08T07:31:36.902Z,26.29
2023-01-08T07:32:36.815Z,26.30
2023-01-08T07:33:36.785Z,26.33
2023-01-08T07:34:36.748Z,26.33
2023-01-08T07:35:36.743Z,26.33
2023-01-08T07:36:36.679Z,26.30
2023-01-08T07:37:36.648Z,26.29
2023-01-08T07:38:36.613Z,26.28
2023-01-08T07:39:36.573Z,26.29
2023-01-08T07:40:39.147Z,26.29
2023-01-08T07:41:36.615Z,26.28
2023-01-08T07:42:36.489Z,26.29
2023-01-08T07:43:36.438Z,26.29
2023-01-08T07:44:36.413Z,26.32
2023-01-08T07:45:36.377Z,26.30
2023-01-08T07:46:36.414Z,26.29
2023-01-08T07:47:36.304Z,26.33
2023-01-08T07:48:36.268Z,26.33
2023-01-08T07:49:36.213Z,26.35
2023-01-08T07:50:36.209Z,26.34
2023-01-08T07:51:36.151Z,26.30
2023-01-08T07:52:36.164Z,26.33
2023-01-08T07:53:36.093Z,26.27
2023-01-08T07:54:36.050Z,26.33
2023-01-08T07:55:36.015Z,26.33
2023-01-08T07:56:35.984Z,26.33
2023-01-08T07:57:36.026Z,26.32
2023-01-08T07:58:35.935Z,26.30
2023-01-08T07:59:35.870Z,26.32
2023-01-08T08:00:35.853Z,26.34
2023-01-08T08:01:35.930Z,26.27
2023-01-08T08:02:35.964Z,26.29
2023-01-08T08:03:35.768Z,26.30
2023-01-08T08:04:35.690Z,26.24
2023-01-08T08:05:35.653Z,26.29
2023-01-08T08:06:35.605Z,26.27
2023-01-08T08:07:35.564Z,26.32
2023-01-08T08:08:35.560Z,26.34
2023-01-08T08:09:35.555Z,26.27
2023-01-08T08:10:35.496Z,26.32
2023-01-08T08:11:35.428Z,26.30
2023-01-08T08:12:35.390Z,26.30
2023-01-08T08:13:35.435Z,26.29
2023-01-08T08:14:35.318Z,26.32
2023-01-08T08:15:35.259Z,26.32
2023-01-08T08:16:35.322Z,26.30
2023-01-08T08:17:35.185Z,26.26
2023-01-08T08:18:35.173Z,26.32
2023-01-08T08:19:35.129Z,26.24
2023-01-08T08:20:35.101Z,26.34
2023-01-08T08:21:35.054Z,26.26
2023-01-08T08:22:35.011Z,26.30
2023-01-08T08:23:36.706Z,26.30
2023-01-08T08:24:34.933Z,26.29
2023-01-08T08:25:34.909Z,26.32
2023-01-08T08:26:34.892Z,26.32
2023-01-08T08:27:34.839Z,26.25
2023-01-08T08:28:34.803Z,26.26
2023-01-08T08:29:34.851Z,26.25
2023-01-08T08:30:34.739Z,26.25
2023-01-08T08:31:34.744Z,26.29
2023-01-08T08:32:34.666Z,26.29
2023-01-08T08:33:34.666Z,26.25
2023-01-08T08:34:34.594Z,26.28
2023-01-08T08:35:34.555Z,26.26
2023-01-08T08:36:34.534Z,26.25
2023-01-08T08:37:34.504Z,26.20
2023-01-08T08:38:34.452Z,26.30
2023-01-08T08:39:34.416Z,26.25
2023-01-08T08:40:34.385Z,26.25
2023-01-08T08:41:34.372Z,26.26
2023-01-08T08:42:34.309Z,26.28
2023-01-08T08:43:34.268Z,26.31
2023-01-08T08:44:34.235Z,26.25
2023-01-08T08:45:34.294Z,26.25
2023-01-08T08:46:34.248Z,26.26
2023-01-08T08:47:34.131Z,26.25
2023-01-08T08:48:34.097Z,26.28
2023-01-08T08:49:34.046Z,26.23
2023-01-08T08:50:34.014Z,26.25
2023-01-08T08:51:33.987Z,26.24
2023-01-08T08:52:33.937Z,26.25
2023-01-08T08:53:33.889Z,26.25
2023-01-08T08:54:33.900Z,26.29
2023-01-08T08:55:33.823Z,26.29
2023-01-08T08:56:33.825Z,26.24
2023-01-08T08:57:33.730Z,26.26
2023-01-08T08:58:33.703Z,26.24
2023-01-08T08:59:33.653Z,26.28
2023-01-08T09:00:33.626Z,26.26
2023-01-08T09:01:33.755Z,26.26
2023-01-08T09:02:33.760Z,26.24
2023-01-08T09:03:33.466Z,26.22
2023-01-08T09:04:33.452Z,26.24
2023-01-08T09:05:33.399Z,26.25
2023-01-08T09:06:33.356Z,26.25
2023-01-08T09:07:33.320Z,26.21
2023-01-08T09:08:33.272Z,26.24
2023-01-08T09:09:33.238Z,26.21
2023-01-08T09:10:33.205Z,26.21
2023-01-08T09:11:33.148Z,26.25
2023-01-08T09:12:33.115Z,26.21
2023-01-08T09:13:33.073Z,26.21
2023-01-08T09:14:33.035Z,26.23
2023-01-08T09:15:32.992Z,26.20
2023-01-08T09:16:33.069Z,26.15
2023-01-08T09:17:33.014Z,26.21
2023-01-08T09:18:32.882Z,26.20
2023-01-08T09:19:32.842Z,26.20
2023-01-08T09:20:32.815Z,26.18
2023-01-08T09:21:32.760Z,26.17
2023-01-08T09:22:32.743Z,26.18
2023-01-08T09:23:32.700Z,26.19
2023-01-08T09:24:32.642Z,26.16
2023-01-08T09:25:32.597Z,26.14
2023-01-08T09:26:32.555Z,26.16
2023-01-08T09:27:32.558Z,26.19
2023-01-08T09:28:32.478Z,26.13
2023-01-08T09:29:32.421Z,26.14
2023-01-08T09:30:32.395Z,26.17
2023-01-08T09:31:32.425Z,26.17
2023-01-08T09:32:32.304Z,26.19
2023-01-08T09:33:32.334Z,26.16
2023-01-08T09:34:32.209Z,26.10
2023-01-08T09:35:32.179Z,26.17
2023-01-08T09:36:32.147Z,26.13
2023-01-08T09:37:32.090Z,26.17
2023-01-08T09:38:32.064Z,26.11
2023-01-08T09:39:31.999Z,26.16
2023-01-08T09:40:31.944Z,26.16
2023-01-08T09:41:31.901Z,26.17
2023-01-08T09:42:31.892Z,26.13
2023-01-08T09:43:31.816Z,26.13
2023-01-08T09:44:31.788Z,26.13
2023-01-08T09:45:31.736Z,26.13
2023-01-08T09:46:31.756Z,26.13
2023-01-08T09:47:31.657Z,26.16
2023-01-08T09:48:31.608Z,26.15
2023-01-08T09:49:31.645Z,26.13
2023-01-08T09:50:31.551Z,26.16
2023-01-08T09:51:31.488Z,26.15
2023-01-08T09:52:31.493Z,26.13
2023-01-08T09:53:31.436Z,26.15
2023-01-08T09:54:31.396Z,26.19
2023-01-08T09:55:31.387Z,26.15
2023-01-08T09:56:31.313Z,26.12
2023-01-08T09:57:31.272Z,26.19
2023-01-08T09:58:31.246Z,26.15
2023-01-08T09:59:31.193Z,26.15
2023-01-08T10:00:31.183Z,26.18
2023-01-08T10:01:31.217Z,26.13
2023-01-08T10:02:31.188Z,26.12
2023-01-08T10:03:31.039Z,26.12
2023-01-08T10:04:30.994Z,26.15
2023-01-08T10:05:31.051Z,26.09
2023-01-08T10:06:30.913Z,26.05
2023-01-08T10:07:30.893Z,26.11
2023-01-08T10:08:30.877Z,26.08
2023-01-08T10:09:30.802Z,26.11
2023-01-08T10:10:30.764Z,26.13
2023-01-08T10:11:30.728Z,26.11
2023-01-08T10:12:30.690Z,26.15
2023-01-08T10:13:30.666Z,26.13
2023-01-08T10:14:30.587Z,26.13
2023-01-08T10:15:30.539Z,26.11
2023-01-08T10:16:30.616Z,26.08
2023-01-08T10:17:30.460Z,26.11
2023-01-08T10:18:30.431Z,26.08
2023-01-08T10:19:30.374Z,26.11
2023-01-08T10:20:30.337Z,26.12
2023-01-08T10:21:30.375Z,26.11
2023-01-08T10:22:30.256Z,26.09
2023-01-08T10:23:30.213Z,26.11
2023-01-08T10:24:30.175Z,26.14
2023-01-08T10:25:30.648Z,26.16
2023-01-08T10:26:30.131Z,26.13
2023-01-08T10:27:30.062Z,26.16
2023-01-08T10:28:30.052Z,26.07
2023-01-08T10:29:29.979Z,26.06
2023-01-08T10:30:29.942Z,26.12
2023-01-08T10:31:29.960Z,26.11
2023-01-08T10:32:29.880Z,26.13
2023-01-08T10:33:29.847Z,26.11
2023-01-08T10:34:29.817Z,26.15
2023-01-08T10:35:29.750Z,26.11
2023-01-08T10:36:29.725Z,26.12
2023-01-08T10:37:29.769Z,26.13
2023-01-08T10:38:31.551Z,26.11
2023-01-08T10:39:29.597Z,26.09
2023-01-08T10:40:29.569Z,26.08
2023-01-08T10:41:29.493Z,26.08
2023-01-08T10:42:29.453Z,26.07
2023-01-08T10:43:29.427Z,26.15
2023-01-08T10:44:29.404Z,26.05
2023-01-08T10:45:29.404Z,26.03
2023-01-08T10:46:29.315Z,26.08
2023-01-08T10:47:29.289Z,26.08
2023-01-08T10:48:29.235Z,26.09
2023-01-08T10:49:29.223Z,26.06
2023-01-08T10:50:29.177Z,26.05
2023-01-08T10:51:29.109Z,26.09
2023-01-08T10:52:29.060Z,26.12
2023-01-08T10:53:29.112Z,26.06
2023-01-08T10:54:29.016Z,26.05
2023-01-08T10:55:28.967Z,26.08
2023-01-08T10:56:28.911Z,26.06
2023-01-08T10:57:28.874Z,26.08
2023-01-08T10:58:28.833Z,26.05
2023-01-08T10:59:28.756Z,26.05
2023-01-08T11:00:28.761Z,26.06
2023-01-08T11:01:28.792Z,26.06
2023-01-08T11:02:28.643Z,26.05
2023-01-08T11:03:28.581Z,26.05
2023-01-08T11:04:28.550Z,26.02
2023-01-08T11:05:28.505Z,26.03
2023-01-08T11:06:28.462Z,26.05
2023-01-08T11:07:28.426Z,25.98
2023-01-08T11:08:28.391Z,26.02
2023-01-08T11:09:28.351Z,26.02
2023-01-08T11:10:28.270Z,26.02
2023-01-08T11:11:28.219Z,26.02
2023-01-08T11:12:28.182Z,26.05
2023-01-08T11:13:28.137Z,25.99
2023-01-08T11:14:28.113Z,26.01
2023-01-08T11:15:28.052Z,26.01
2023-01-08T11:16:28.024Z,26.02
2023-01-08T11:17:27.944Z,26.03
2023-01-08T11:18:27.907Z,26.02
2023-01-08T11:19:27.889Z,26.01
2023-01-08T11:20:27.802Z,26.02
2023-01-08T11:21:27.759Z,26.02
2023-01-08T11:22:27.711Z,26.01
2023-01-08T11:23:27.667Z,26.05
2023-01-08T11:24:27.626Z,26.03
2023-01-08T11:25:27.560Z,26.02
2023-01-08T11:26:27.520Z,26.01
2023-01-08T11:27:27.481Z,25.96
2023-01-08T11:28:27.439Z,26.02
2023-01-08T11:29:27.406Z,25.97
2023-01-08T11:30:27.372Z,25.93
2023-01-08T11:31:27.325Z,25.97
2023-01-08T11:32:27.283Z,26.02
2023-01-08T11:33:27.253Z,25.99
2023-01-08T11:34:27.179Z,25.99
2023-01-08T11:35:27.139Z,25.95
2023-01-08T11:36:27.101Z,25.98
2023-01-08T11:37:27.056Z,25.98
2023-01-08T11:38:27.017Z,25.97
2023-01-08T11:39:26.976Z,25.94
2023-01-08T11:40:26.958Z,25.99
2023-01-08T11:41:26.904Z,25.94
2023-01-08T11:42:26.864Z,25.95
2023-01-08T11:43:26.815Z,25.94
2023-01-08T11:44:26.776Z,25.95
2023-01-08T11:45:26.792Z,25.98
2023-01-08T11:46:26.669Z,25.95
2023-01-08T11:47:26.650Z,25.97
2023-01-08T11:48:26.582Z,25.91
2023-01-08T11:49:26.550Z,25.96
2023-01-08T11:50:26.507Z,25.94
2023-01-08T11:51:26.457Z,25.95
2023-01-08T11:52:26.403Z,25.95
2023-01-08T11:53:26.383Z,25.97
2023-01-08T11:54:26.337Z,25.91
2023-01-08T11:55:26.330Z,25.92
2023-01-08T11:56:26.274Z,25.94
2023-01-08T11:57:26.228Z,25.97
2023-01-08T11:58:26.210Z,25.91
2023-01-08T11:59:26.145Z,25.89
2023-01-08T12:00:26.124Z,25.93
2023-01-08T12:01:26.088Z,25.93
2023-01-08T12:02:26.058Z,25.96
2023-01-08T12:03:26.041Z,25.96
2023-01-08T12:04:25.915Z,25.94
2023-01-08T12:05:25.885Z,25.97
2023-01-08T12:06:25.832Z,25.94
2023-01-08T12:07:25.776Z,25.94
2023-01-08T12:08:25.715Z,25.90
2023-01-08T12:09:25.668Z,25.90
2023-01-08T12:10:25.632Z,25.90
2023-01-08T12:11:25.571Z,25.97
2023-01-08T12:12:25.532Z,25.96
2023-01-08T12:13:25.470Z,25.98
2023-01-08T12:14:25.465Z,25.98
2023-01-08T12:15:25.405Z,25.94
2023-01-08T12:16:25.364Z,25.97
2023-01-08T12:17:25.271Z,25.95
2023-01-08T12:18:25.223Z,26.00
2023-01-08T12:19:25.166Z,25.92
2023-01-08T12:20:25.125Z,26.05
2023-01-08T12:21:25.069Z,26.00
2023-01-08T12:22:25.027Z,25.97
2023-01-08T12:23:24.987Z,26.06
2023-01-08T12:24:24.920Z,25.98
2023-01-08T12:25:24.874Z,26.01
2023-01-08T12:26:24.844Z,26.02
2023-01-08T12:27:48.398Z,26.03
2023-01-08T12:28:25.735Z,26.01
2023-01-08T12:29:24.687Z,26.01
2023-01-08T12:30:24.672Z,26.01
2023-01-08T12:31:24.647Z,25.98
2023-01-08T12:32:24.629Z,25.99
2023-01-08T12:33:24.512Z,26.02
2023-01-08T12:34:24.473Z,25.97
2023-01-08T12:35:24.445Z,26.01
2023-01-08T12:36:24.395Z,26.03
2023-01-08T12:37:24.359Z,25.97
2023-01-08T12:38:24.308Z,25.99
2023-01-08T12:39:24.275Z,25.99
2023-01-08T12:40:24.228Z,26.03
2023-01-08T12:41:24.208Z,26.01
2023-01-08T12:42:24.161Z,26.01
2023-01-08T12:43:24.117Z,26.08
2023-01-08T12:44:24.115Z,26.05
2023-01-08T12:45:24.029Z,25.99
2023-01-08T12:46:24.006Z,26.09
2023-01-08T12:47:23.960Z,26.03
2023-01-08T12:48:23.917Z,26.05
2023-01-08T12:49:23.897Z,26.05
2023-01-08T12:50:23.877Z,25.99
2023-01-08T12:51:23.840Z,26.03
2023-01-08T12:52:23.774Z,26.05